sensor_id;sensor_type;location;lat;lon;timestamp;pressure;altitude;pressure_sealevel;temperature
65316;BMP280;51920;53.952;10.292;2023-12-04T00:01:15;101425.69;;;-0.91
65316;BMP280;51920;53.952;10.292;2023-12-04T00:03:43;101414.97;;;-0.81
65316;BMP280;51920;53.952;10.292;2023-12-04T00:06:13;101411.22;;;-0.80
65316;BMP280;51920;53.952;10.292;2023-12-04T00:08:40;101412.31;;;-0.81
65316;BMP280;51920;53.952;10.292;2023-12-04T00:11:07;101404.38;;;-0.86
65316;BMP280;51920;53.952;10.292;2023-12-04T00:13:34;101402.19;;;-0.79
65316;BMP280;51920;53.952;10.292;2023-12-04T00:16:04;101402.66;;;-0.72
65316;BMP280;51920;53.952;10.292;2023-12-04T00:18:30;101395.38;;;-0.90
65316;BMP280;51920;53.952;10.292;2023-12-04T00:20:57;101395.81;;;-0.78
65316;BMP280;51920;53.952;10.292;2023-12-04T00:23:24;101386.03;;;-0.88
65316;BMP280;51920;53.952;10.292;2023-12-04T00:25:51;101378.88;;;-0.92
65316;BMP280;51920;53.952;10.292;2023-12-04T00:28:17;101377.03;;;-0.92
65316;BMP280;51920;53.952;10.292;2023-12-04T00:30:44;101379.69;;;-0.92
65316;BMP280;51920;53.952;10.292;2023-12-04T00:33:11;101376.94;;;-0.82
65316;BMP280;51920;53.952;10.292;2023-12-04T00:35:38;101379.31;;;-0.80
65316;BMP280;51920;53.952;10.292;2023-12-04T00:38:04;101385.44;;;-0.80
65316;BMP280;51920;53.952;10.292;2023-12-04T00:40:31;101377.25;;;-0.88
65316;BMP280;51920;53.952;10.292;2023-12-04T00:42:59;101381.25;;;-0.91
65316;BMP280;51920;53.952;10.292;2023-12-04T00:45:27;101374.63;;;-0.93
65316;BMP280;51920;53.952;10.292;2023-12-04T00:47:54;101374.16;;;-1.01
65316;BMP280;51920;53.952;10.292;2023-12-04T00:50:21;101372.84;;;-1.03
65316;BMP280;51920;53.952;10.292;2023-12-04T00:52:48;101371.53;;;-1.06
65316;BMP280;51920;53.952;10.292;2023-12-04T00:55:15;101368.91;;;-1.11
65316;BMP280;51920;53.952;10.292;2023-12-04T00:57:41;101368.13;;;-1.11
65316;BMP280;51920;53.952;10.292;2023-12-04T01:00:08;101367.88;;;-1.15
65316;BMP280;51920;53.952;10.292;2023-12-04T01:02:35;101366.91;;;-1.29
65316;BMP280;51920;53.952;10.292;2023-12-04T01:05:02;101357.84;;;-1.28
65316;BMP280;51920;53.952;10.292;2023-12-04T01:07:29;101359.50;;;-1.38
65316;BMP280;51920;53.952;10.292;2023-12-04T01:09:56;101349.38;;;-1.30
65316;BMP280;51920;53.952;10.292;2023-12-04T01:12:23;101350.25;;;-1.45
65316;BMP280;51920;53.952;10.292;2023-12-04T01:14:49;101350.75;;;-1.43
65316;BMP280;51920;53.952;10.292;2023-12-04T01:17:16;101343.50;;;-1.27
65316;BMP280;51920;53.952;10.292;2023-12-04T01:19:43;101351.00;;;-1.40
65316;BMP280;51920;53.952;10.292;2023-12-04T01:22:09;101353.41;;;-1.43
65316;BMP280;51920;53.952;10.292;2023-12-04T01:24:36;101350.72;;;-1.38
65316;BMP280;51920;53.952;10.292;2023-12-04T01:27:03;101356.88;;;-1.48
65316;BMP280;51920;53.952;10.292;2023-12-04T01:29:29;101350.03;;;-1.54
65316;BMP280;51920;53.952;10.292;2023-12-04T01:31:58;101344.66;;;-1.44
65316;BMP280;51920;53.952;10.292;2023-12-04T01:34:24;101341.31;;;-1.60
65316;BMP280;51920;53.952;10.292;2023-12-04T01:36:52;101336.28;;;-1.66
65316;BMP280;51920;53.952;10.292;2023-12-04T01:39:19;101341.84;;;-1.63
65316;BMP280;51920;53.952;10.292;2023-12-04T01:41:49;101350.38;;;-1.71
65316;BMP280;51920;53.952;10.292;2023-12-04T01:44:16;101342.91;;;-1.64
65316;BMP280;51920;53.952;10.292;2023-12-04T01:46:44;101342.09;;;-1.64
65316;BMP280;51920;53.952;10.292;2023-12-04T01:49:11;101338.41;;;-1.68
65316;BMP280;51920;53.952;10.292;2023-12-04T01:51:38;101338.94;;;-1.66
65316;BMP280;51920;53.952;10.292;2023-12-04T01:54:05;101344.81;;;-1.75
65316;BMP280;51920;53.952;10.292;2023-12-04T01:56:34;101340.81;;;-1.67
65316;BMP280;51920;53.952;10.292;2023-12-04T01:59:01;101323.28;;;-1.73
65316;BMP280;51920;53.952;10.292;2023-12-04T02:01:28;101317.50;;;-1.85
65316;BMP280;51920;53.952;10.292;2023-12-04T02:03:56;101324.91;;;-1.77
65316;BMP280;51920;53.952;10.292;2023-12-04T02:06:23;101319.31;;;-1.71
65316;BMP280;51920;53.952;10.292;2023-12-04T02:08:51;101314.56;;;-1.79
65316;BMP280;51920;53.952;10.292;2023-12-04T02:11:18;101316.69;;;-1.76
65316;BMP280;51920;53.952;10.292;2023-12-04T02:13:44;101303.44;;;-1.86
65316;BMP280;51920;53.952;10.292;2023-12-04T02:16:12;101302.44;;;-2.00
65316;BMP280;51920;53.952;10.292;2023-12-04T02:18:42;101305.13;;;-2.11
65316;BMP280;51920;53.952;10.292;2023-12-04T02:21:09;101300.00;;;-1.92
65316;BMP280;51920;53.952;10.292;2023-12-04T02:23:36;101294.44;;;-1.95
65316;BMP280;51920;53.952;10.292;2023-12-04T02:26:11;101300.81;;;-1.96
65316;BMP280;51920;53.952;10.292;2023-12-04T02:28:40;101293.94;;;-1.97
65316;BMP280;51920;53.952;10.292;2023-12-04T02:31:07;101294.19;;;-1.94
65316;BMP280;51920;53.952;10.292;2023-12-04T02:33:36;101290.47;;;-1.98
65316;BMP280;51920;53.952;10.292;2023-12-04T02:36:05;101283.31;;;-1.97
65316;BMP280;51920;53.952;10.292;2023-12-04T02:38:32;101286.00;;;-2.02
65316;BMP280;51920;53.952;10.292;2023-12-04T02:40:59;101282.25;;;-2.01
65316;BMP280;51920;53.952;10.292;2023-12-04T02:43:26;101282.84;;;-2.15
65316;BMP280;51920;53.952;10.292;2023-12-04T02:45:52;101284.16;;;-2.12
65316;BMP280;51920;53.952;10.292;2023-12-04T02:48:19;101271.19;;;-2.19
65316;BMP280;51920;53.952;10.292;2023-12-04T02:50:45;101264.25;;;-2.10
65316;BMP280;51920;53.952;10.292;2023-12-04T02:53:12;101260.03;;;-2.16
65316;BMP280;51920;53.952;10.292;2023-12-04T02:55:39;101255.25;;;-2.19
65316;BMP280;51920;53.952;10.292;2023-12-04T02:58:05;101250.81;;;-2.29
65316;BMP280;51920;53.952;10.292;2023-12-04T03:00:32;101246.81;;;-2.31
65316;BMP280;51920;53.952;10.292;2023-12-04T03:03:25;101237.81;;;-2.46
65316;BMP280;51920;53.952;10.292;2023-12-04T03:05:52;101234.34;;;-2.25
65316;BMP280;51920;53.952;10.292;2023-12-04T03:08:19;101233.56;;;-2.36
65316;BMP280;51920;53.952;10.292;2023-12-04T03:10:45;101240.97;;;-2.28
65316;BMP280;51920;53.952;10.292;2023-12-04T03:13:12;101242.59;;;-2.42
65316;BMP280;51920;53.952;10.292;2023-12-04T03:15:39;101249.19;;;-2.35
65316;BMP280;51920;53.952;10.292;2023-12-04T03:18:05;101235.19;;;-2.46
65316;BMP280;51920;53.952;10.292;2023-12-04T03:20:32;101235.50;;;-2.52
65316;BMP280;51920;53.952;10.292;2023-12-04T03:22:59;101221.66;;;-2.44
65316;BMP280;51920;53.952;10.292;2023-12-04T03:25:26;101230.44;;;-2.49
65316;BMP280;51920;53.952;10.292;2023-12-04T03:27:53;101224.84;;;-2.47
65316;BMP280;51920;53.952;10.292;2023-12-04T03:30:19;101227.31;;;-2.61
65316;BMP280;51920;53.952;10.292;2023-12-04T03:32:46;101224.34;;;-2.54
65316;BMP280;51920;53.952;10.292;2023-12-04T03:35:13;101215.59;;;-2.55
65316;BMP280;51920;53.952;10.292;2023-12-04T03:37:40;101219.25;;;-2.46
65316;BMP280;51920;53.952;10.292;2023-12-04T03:40:07;101212.69;;;-2.53
65316;BMP280;51920;53.952;10.292;2023-12-04T03:42:33;101203.44;;;-2.61
65316;BMP280;51920;53.952;10.292;2023-12-04T03:45:00;101208.47;;;-2.59
65316;BMP280;51920;53.952;10.292;2023-12-04T03:47:27;101198.41;;;-2.62
65316;BMP280;51920;53.952;10.292;2023-12-04T03:49:53;101193.34;;;-2.74
65316;BMP280;51920;53.952;10.292;2023-12-04T03:52:22;101189.09;;;-2.65
65316;BMP280;51920;53.952;10.292;2023-12-04T03:54:49;101189.06;;;-2.50
65316;BMP280;51920;53.952;10.292;2023-12-04T03:57:16;101180.63;;;-2.62
65316;BMP280;51920;53.952;10.292;2023-12-04T03:59:43;101178.22;;;-2.58
65316;BMP280;51920;53.952;10.292;2023-12-04T04:02:10;101173.63;;;-2.42
65316;BMP280;51920;53.952;10.292;2023-12-04T04:04:36;101178.44;;;-2.44
65316;BMP280;51920;53.952;10.292;2023-12-04T04:07:03;101177.34;;;-2.43
65316;BMP280;51920;53.952;10.292;2023-12-04T04:09:30;101177.94;;;-2.52
65316;BMP280;51920;53.952;10.292;2023-12-04T04:11:56;101167.31;;;-2.52
65316;BMP280;51920;53.952;10.292;2023-12-04T04:14:23;101167.91;;;-2.65
65316;BMP280;51920;53.952;10.292;2023-12-04T04:16:50;101162.31;;;-2.58
65316;BMP280;51920;53.952;10.292;2023-12-04T04:19:17;101150.38;;;-2.56
65316;BMP280;51920;53.952;10.292;2023-12-04T04:21:44;101145.03;;;-2.51
65316;BMP280;51920;53.952;10.292;2023-12-04T04:24:10;101145.09;;;-2.61
65316;BMP280;51920;53.952;10.292;2023-12-04T04:26:38;101137.16;;;-2.71
65316;BMP280;51920;53.952;10.292;2023-12-04T04:29:05;101141.09;;;-2.69
65316;BMP280;51920;53.952;10.292;2023-12-04T04:31:31;101138.72;;;-2.60
65316;BMP280;51920;53.952;10.292;2023-12-04T04:33:58;101136.06;;;-2.65
65316;BMP280;51920;53.952;10.292;2023-12-04T04:36:25;101136.56;;;-2.58
65316;BMP280;51920;53.952;10.292;2023-12-04T04:38:51;101127.03;;;-2.54
65316;BMP280;51920;53.952;10.292;2023-12-04T04:41:18;101134.75;;;-2.62
65316;BMP280;51920;53.952;10.292;2023-12-04T04:43:44;101136.06;;;-2.70
65316;BMP280;51920;53.952;10.292;2023-12-04T04:46:11;101131.25;;;-2.58
65316;BMP280;51920;53.952;10.292;2023-12-04T04:48:37;101121.50;;;-2.68
65316;BMP280;51920;53.952;10.292;2023-12-04T04:51:05;101123.91;;;-2.66
65316;BMP280;51920;53.952;10.292;2023-12-04T04:53:31;101117.25;;;-2.63
65316;BMP280;51920;53.952;10.292;2023-12-04T04:55:58;101115.16;;;-2.72
65316;BMP280;51920;53.952;10.292;2023-12-04T04:58:25;101118.38;;;-2.80
65316;BMP280;51920;53.952;10.292;2023-12-04T05:00:51;101115.69;;;-2.75
65316;BMP280;51920;53.952;10.292;2023-12-04T05:03:18;101119.72;;;-2.83
65316;BMP280;51920;53.952;10.292;2023-12-04T05:05:44;101118.69;;;-2.97
65316;BMP280;51920;53.952;10.292;2023-12-04T05:08:11;101111.53;;;-2.96
65316;BMP280;51920;53.952;10.292;2023-12-04T05:10:41;101117.09;;;-2.98
65316;BMP280;51920;53.952;10.292;2023-12-04T05:13:07;101117.00;;;-2.77
65316;BMP280;51920;53.952;10.292;2023-12-04T05:15:34;101109.41;;;-2.94
65316;BMP280;51920;53.952;10.292;2023-12-04T05:18:01;101115.44;;;-2.78
65316;BMP280;51920;53.952;10.292;2023-12-04T05:20:27;101118.59;;;-2.76
65316;BMP280;51920;53.952;10.292;2023-12-04T05:22:54;101116.22;;;-2.78
65316;BMP280;51920;53.952;10.292;2023-12-04T05:25:21;101104.56;;;-2.72
65316;BMP280;51920;53.952;10.292;2023-12-04T05:27:47;101098.16;;;-2.66
65316;BMP280;51920;53.952;10.292;2023-12-04T05:30:15;101106.88;;;-2.60
65316;BMP280;51920;53.952;10.292;2023-12-04T05:32:41;101108.72;;;-2.55
65316;BMP280;51920;53.952;10.292;2023-12-04T05:35:08;101098.13;;;-2.55
65316;BMP280;51920;53.952;10.292;2023-12-04T05:37:34;101099.94;;;-2.51
65316;BMP280;51920;53.952;10.292;2023-12-04T05:40:01;101095.19;;;-2.49
65316;BMP280;51920;53.952;10.292;2023-12-04T05:42:29;101088.78;;;-2.48
65316;BMP280;51920;53.952;10.292;2023-12-04T05:44:56;101090.38;;;-2.47
65316;BMP280;51920;53.952;10.292;2023-12-04T05:47:23;101097.19;;;-2.35
65316;BMP280;51920;53.952;10.292;2023-12-04T05:49:50;101089.78;;;-2.38
65316;BMP280;51920;53.952;10.292;2023-12-04T05:52:16;101091.38;;;-2.37
65316;BMP280;51920;53.952;10.292;2023-12-04T05:54:43;101075.47;;;-2.37
65316;BMP280;51920;53.952;10.292;2023-12-04T05:57:10;101075.66;;;-2.23
65316;BMP280;51920;53.952;10.292;2023-12-04T05:59:37;101084.09;;;-2.16
65316;BMP280;51920;53.952;10.292;2023-12-04T06:02:04;101082.25;;;-2.21
65316;BMP280;51920;53.952;10.292;2023-12-04T06:04:30;101093.34;;;-2.14
65316;BMP280;51920;53.952;10.292;2023-12-04T06:06:57;101075.84;;;-2.10
65316;BMP280;51920;53.952;10.292;2023-12-04T06:09:23;101079.31;;;-2.14
65316;BMP280;51920;53.952;10.292;2023-12-04T06:11:50;101077.91;;;-2.06
65316;BMP280;51920;53.952;10.292;2023-12-04T06:14:16;101067.81;;;-2.04
65316;BMP280;51920;53.952;10.292;2023-12-04T06:16:43;101064.38;;;-2.05
65316;BMP280;51920;53.952;10.292;2023-12-04T06:19:10;101072.06;;;-2.03
65316;BMP280;51920;53.952;10.292;2023-12-04T06:21:36;101064.91;;;-2.08
65316;BMP280;51920;53.952;10.292;2023-12-04T06:24:03;101068.69;;;-2.14
65316;BMP280;51920;53.952;10.292;2023-12-04T06:26:31;101070.28;;;-2.13
65316;BMP280;51920;53.952;10.292;2023-12-04T06:28:59;101066.31;;;-2.16
65316;BMP280;51920;53.952;10.292;2023-12-04T06:31:26;101066.31;;;-2.16
65316;BMP280;51920;53.952;10.292;2023-12-04T06:33:53;101056.59;;;-2.25
65316;BMP280;51920;53.952;10.292;2023-12-04T06:36:20;101057.91;;;-2.33
65316;BMP280;51920;53.952;10.292;2023-12-04T06:38:51;101053.13;;;-2.26
65316;BMP280;51920;53.952;10.292;2023-12-04T06:41:18;101055.53;;;-2.30
65316;BMP280;51920;53.952;10.292;2023-12-04T06:43:47;101048.84;;;-2.22
65316;BMP280;51920;53.952;10.292;2023-12-04T06:46:16;101050.13;;;-1.85
65316;BMP280;51920;53.952;10.292;2023-12-04T06:48:44;101048.28;;;-1.84
65316;BMP280;51920;53.952;10.292;2023-12-04T06:51:11;101042.47;;;-1.86
65316;BMP280;51920;53.952;10.292;2023-12-04T06:53:37;101041.13;;;-1.89
65316;BMP280;51920;53.952;10.292;2023-12-04T06:56:04;101037.47;;;-1.93
65316;BMP280;51920;53.952;10.292;2023-12-04T06:58:32;101028.56;;;-2.08
65316;BMP280;51920;53.952;10.292;2023-12-04T07:00:59;101032.00;;;-2.07
65316;BMP280;51920;53.952;10.292;2023-12-04T07:03:27;101026.47;;;-2.11
65316;BMP280;51920;53.952;10.292;2023-12-04T07:05:53;101028.34;;;-2.11
65316;BMP280;51920;53.952;10.292;2023-12-04T07:08:20;101037.91;;;-2.15
65316;BMP280;51920;53.952;10.292;2023-12-04T07:10:47;101038.22;;;-2.17
65316;BMP280;51920;53.952;10.292;2023-12-04T07:13:14;101035.06;;;-2.24
65316;BMP280;51920;53.952;10.292;2023-12-04T07:15:40;101036.66;;;-2.23
65316;BMP280;51920;53.952;10.292;2023-12-04T07:18:07;101040.28;;;-2.14
65316;BMP280;51920;53.952;10.292;2023-12-04T07:20:34;101029.16;;;-2.16
65316;BMP280;51920;53.952;10.292;2023-12-04T07:23:01;101032.41;;;-2.24
65316;BMP280;51920;53.952;10.292;2023-12-04T07:25:27;101024.13;;;-2.17
65316;BMP280;51920;53.952;10.292;2023-12-04T07:27:54;101038.44;;;-2.13
65316;BMP280;51920;53.952;10.292;2023-12-04T07:30:21;101031.09;;;-2.27
65316;BMP280;51920;53.952;10.292;2023-12-04T07:32:47;101033.06;;;-2.08
65316;BMP280;51920;53.952;10.292;2023-12-04T07:35:14;101033.22;;;-2.23
65316;BMP280;51920;53.952;10.292;2023-12-04T07:37:41;101037.63;;;-2.14
65316;BMP280;51920;53.952;10.292;2023-12-04T07:40:08;101039.94;;;-2.02
65316;BMP280;51920;53.952;10.292;2023-12-04T07:42:36;101039.16;;;-2.02
65316;BMP280;51920;53.952;10.292;2023-12-04T07:45:03;101043.69;;;-2.08
65316;BMP280;51920;53.952;10.292;2023-12-04T07:47:30;101030.13;;;-2.06
65316;BMP280;51920;53.952;10.292;2023-12-04T07:49:56;101034.38;;;-2.05
65316;BMP280;51920;53.952;10.292;2023-12-04T07:52:23;101039.38;;;-1.99
65316;BMP280;51920;53.952;10.292;2023-12-04T07:54:50;101026.34;;;-1.95
65316;BMP280;51920;53.952;10.292;2023-12-04T07:57:16;101023.41;;;-1.94
65316;BMP280;51920;53.952;10.292;2023-12-04T07:59:43;101026.34;;;-1.95
65316;BMP280;51920;53.952;10.292;2023-12-04T08:02:10;101026.88;;;-1.98
65316;BMP280;51920;53.952;10.292;2023-12-04T08:04:36;101026.06;;;-1.94
65316;BMP280;51920;53.952;10.292;2023-12-04T08:07:03;101024.75;;;-1.96
65316;BMP280;51920;53.952;10.292;2023-12-04T08:09:30;101026.34;;;-1.95
65316;BMP280;51920;53.952;10.292;2023-12-04T08:11:57;101028.94;;;-1.90
65316;BMP280;51920;53.952;10.292;2023-12-04T08:14:24;101034.81;;;-1.93
65316;BMP280;51920;53.952;10.292;2023-12-04T08:16:50;101025.19;;;-1.89
65316;BMP280;51920;53.952;10.292;2023-12-04T08:19:17;101015.72;;;-1.95
65316;BMP280;51920;53.952;10.292;2023-12-04T08:21:44;101019.91;;;-1.89
65316;BMP280;51920;53.952;10.292;2023-12-04T08:24:10;101005.81;;;-1.84
65316;BMP280;51920;53.952;10.292;2023-12-04T08:26:37;101007.44;;;-1.88
65316;BMP280;51920;53.952;10.292;2023-12-04T08:29:03;101005.53;;;-1.83
65316;BMP280;51920;53.952;10.292;2023-12-04T08:31:30;101005.00;;;-1.85
65316;BMP280;51920;53.952;10.292;2023-12-04T08:33:56;101001.84;;;-1.87
65316;BMP280;51920;53.952;10.292;2023-12-04T08:36:23;100988.09;;;-1.94
65316;BMP280;51920;53.952;10.292;2023-12-04T08:38:50;100996.53;;;-1.87
65316;BMP280;51920;53.952;10.292;2023-12-04T08:41:16;100989.19;;;-1.95
65316;BMP280;51920;53.952;10.292;2023-12-04T08:43:43;100990.19;;;-1.91
65316;BMP280;51920;53.952;10.292;2023-12-04T08:46:13;100991.56;;;-1.94
65316;BMP280;51920;53.952;10.292;2023-12-04T08:48:41;100991.25;;;-1.92
65316;BMP280;51920;53.952;10.292;2023-12-04T08:51:07;100993.22;;;-2.03
65316;BMP280;51920;53.952;10.292;2023-12-04T08:53:37;100986.00;;;-1.97
65316;BMP280;51920;53.952;10.292;2023-12-04T08:56:04;100977.19;;;-1.93
65316;BMP280;51920;53.952;10.292;2023-12-04T08:58:30;100979.81;;;-1.87
65316;BMP280;51920;53.952;10.292;2023-12-04T09:00:57;100980.34;;;-1.91
65316;BMP280;51920;53.952;10.292;2023-12-04T09:03:23;100987.75;;;-1.82
65316;BMP280;51920;53.952;10.292;2023-12-04T09:05:51;100987.50;;;-1.86
65316;BMP280;51920;53.952;10.292;2023-12-04T09:08:18;100992.53;;;-1.84
65316;BMP280;51920;53.952;10.292;2023-12-04T09:10:48;100995.38;;;-1.76
65316;BMP280;51920;53.952;10.292;2023-12-04T09:13:16;100998.81;;;-1.75
65316;BMP280;51920;53.952;10.292;2023-12-04T09:15:43;100996.50;;;-1.82
65316;BMP280;51920;53.952;10.292;2023-12-04T09:18:09;101000.09;;;-1.73
65316;BMP280;51920;53.952;10.292;2023-12-04T09:20:36;100999.03;;;-1.72
65316;BMP280;51920;53.952;10.292;2023-12-04T09:23:03;101003.28;;;-1.71
65316;BMP280;51920;53.952;10.292;2023-12-04T09:25:29;101006.97;;;-1.66
65316;BMP280;51920;53.952;10.292;2023-12-04T09:27:56;101005.25;;;-1.57
65316;BMP280;51920;53.952;10.292;2023-12-04T09:30:22;100996.22;;;-1.56
65316;BMP280;51920;53.952;10.292;2023-12-04T09:32:49;100994.63;;;-1.57
65316;BMP280;51920;53.952;10.292;2023-12-04T09:35:16;100990.09;;;-1.57
65316;BMP280;51920;53.952;10.292;2023-12-04T09:37:43;100985.00;;;-1.53
65316;BMP280;51920;53.952;10.292;2023-12-04T09:40:10;100974.63;;;-1.49
65316;BMP280;51920;53.952;10.292;2023-12-04T09:42:39;100979.03;;;-1.40
65316;BMP280;51920;53.952;10.292;2023-12-04T09:45:07;100981.97;;;-1.41
65316;BMP280;51920;53.952;10.292;2023-12-04T09:47:34;100987.50;;;-1.38
65316;BMP280;51920;53.952;10.292;2023-12-04T09:50:01;100978.25;;;-1.40
65316;BMP280;51920;53.952;10.292;2023-12-04T09:52:29;100970.16;;;-1.30
65316;BMP280;51920;53.952;10.292;2023-12-04T09:54:57;100976.28;;;-1.29
65316;BMP280;51920;53.952;10.292;2023-12-04T09:57:23;100969.16;;;-1.34
65316;BMP280;51920;53.952;10.292;2023-12-04T09:59:51;100973.03;;;-1.26
65316;BMP280;51920;53.952;10.292;2023-12-04T10:02:19;100975.06;;;-1.18
65316;BMP280;51920;53.952;10.292;2023-12-04T10:04:46;100968.03;;;-1.28
65316;BMP280;51920;53.952;10.292;2023-12-04T10:07:12;100970.59;;;-1.23
65316;BMP280;51920;53.952;10.292;2023-12-04T10:09:40;100967.16;;;-1.23
65316;BMP280;51920;53.952;10.292;2023-12-04T10:12:07;100963.00;;;-1.29
65316;BMP280;51920;53.952;10.292;2023-12-04T10:14:34;100962.19;;;-1.30
65316;BMP280;51920;53.952;10.292;2023-12-04T10:17:14;100956.13;;;-1.36
65316;BMP280;51920;53.952;10.292;2023-12-04T10:19:40;100951.56;;;-1.30
65316;BMP280;51920;53.952;10.292;2023-12-04T10:22:08;100961.19;;;-1.34
65316;BMP280;51920;53.952;10.292;2023-12-04T10:24:39;100949.50;;;-1.33
65316;BMP280;51920;53.952;10.292;2023-12-04T10:27:07;100954.53;;;-1.31
65316;BMP280;51920;53.952;10.292;2023-12-04T10:29:43;100952.44;;;-1.35
65316;BMP280;51920;53.952;10.292;2023-12-04T10:32:10;100935.91;;;-1.31
65316;BMP280;51920;53.952;10.292;2023-12-04T10:34:37;100934.97;;;-1.22
65316;BMP280;51920;53.952;10.292;2023-12-04T10:37:04;100924.69;;;-1.28
65316;BMP280;51920;53.952;10.292;2023-12-04T10:39:45;100921.91;;;-1.18
65316;BMP280;51920;53.952;10.292;2023-12-04T10:42:23;100918.97;;;-1.17
65316;BMP280;51920;53.952;10.292;2023-12-04T10:44:50;100917.09;;;-1.16
65316;BMP280;51920;53.952;10.292;2023-12-04T10:47:19;100913.66;;;-1.17
65316;BMP280;51920;53.952;10.292;2023-12-04T10:49:49;100921.97;;;-1.04
65316;BMP280;51920;53.952;10.292;2023-12-04T10:52:17;100905.47;;;-1.01
65316;BMP280;51920;53.952;10.292;2023-12-04T10:54:46;100910.25;;;-1.03
65316;BMP280;51920;53.952;10.292;2023-12-04T10:57:16;100899.94;;;-1.05
65316;BMP280;51920;53.952;10.292;2023-12-04T10:59:46;100902.41;;;-0.95
65316;BMP280;51920;53.952;10.292;2023-12-04T11:02:18;100904.50;;;-0.91
65316;BMP280;51920;53.952;10.292;2023-12-04T11:04:50;100898.53;;;-0.83
65316;BMP280;51920;53.952;10.292;2023-12-04T11:07:21;100890.97;;;-0.76
65316;BMP280;51920;53.952;10.292;2023-12-04T11:09:49;100887.81;;;-0.78
65316;BMP280;51920;53.952;10.292;2023-12-04T11:12:18;100886.63;;;-0.72
65316;BMP280;51920;53.952;10.292;2023-12-04T11:14:53;100886.06;;;-0.69
65316;BMP280;51920;53.952;10.292;2023-12-04T11:17:23;100886.22;;;-0.79
65316;BMP280;51920;53.952;10.292;2023-12-04T11:19:55;100882.50;;;-0.78
65316;BMP280;51920;53.952;10.292;2023-12-04T11:22:26;100878.75;;;-0.77
65316;BMP280;51920;53.952;10.292;2023-12-04T11:24:52;100882.50;;;-0.78
65316;BMP280;51920;53.952;10.292;2023-12-04T11:27:19;100869.06;;;-0.87
65316;BMP280;51920;53.952;10.292;2023-12-04T11:29:47;100874.81;;;-0.80
65316;BMP280;51920;53.952;10.292;2023-12-04T11:32:17;100883.28;;;-0.78
65316;BMP280;51920;53.952;10.292;2023-12-04T11:34:49;100882.38;;;-0.73
65316;BMP280;51920;53.952;10.292;2023-12-04T11:37:16;100874.50;;;-0.78
65316;BMP280;51920;53.952;10.292;2023-12-04T11:39:42;100876.50;;;-0.09
65316;BMP280;51920;53.952;10.292;2023-12-04T11:42:10;100873.88;;;-0.42
65316;BMP280;51920;53.952;10.292;2023-12-04T11:44:41;100869.72;;;-0.48
65316;BMP280;51920;53.952;10.292;2023-12-04T11:47:08;100863.03;;;-0.60
65316;BMP280;51920;53.952;10.292;2023-12-04T11:49:34;100862.66;;;-0.53
65316;BMP280;51920;53.952;10.292;2023-12-04T11:52:06;100848.13;;;-0.61
65316;BMP280;51920;53.952;10.292;2023-12-04T11:54:58;100849.25;;;-0.48
65316;BMP280;51920;53.952;10.292;2023-12-04T11:57:26;100842.34;;;-0.49
65316;BMP280;51920;53.952;10.292;2023-12-04T12:00:11;100849.72;;;-0.60
65316;BMP280;51920;53.952;10.292;2023-12-04T12:02:39;100837.50;;;-0.61
65316;BMP280;51920;53.952;10.292;2023-12-04T12:05:06;100833.97;;;-0.56
65316;BMP280;51920;53.952;10.292;2023-12-04T12:07:34;100834.56;;;-0.45
65316;BMP280;51920;53.952;10.292;2023-12-04T12:10:01;100834.06;;;-0.47
65316;BMP280;51920;53.952;10.292;2023-12-04T12:12:28;100829.53;;;-0.47
65316;BMP280;51920;53.952;10.292;2023-12-04T12:14:55;100821.94;;;-0.53
65316;BMP280;51920;53.952;10.292;2023-12-04T12:17:22;100820.09;;;-0.39
65316;BMP280;51920;53.952;10.292;2023-12-04T12:19:48;100813.22;;;-0.12
65316;BMP280;51920;53.952;10.292;2023-12-04T12:22:15;100808.56;;;-0.07
65316;BMP280;51920;53.952;10.292;2023-12-04T12:24:42;100809.66;;;-0.22
65316;BMP280;51920;53.952;10.292;2023-12-04T12:27:09;100809.56;;;-0.16
65316;BMP280;51920;53.952;10.292;2023-12-04T12:29:36;100811.59;;;-0.41
65316;BMP280;51920;53.952;10.292;2023-12-04T12:32:03;100802.56;;;-0.26
65316;BMP280;51920;53.952;10.292;2023-12-04T12:34:29;100804.31;;;-0.22
65316;BMP280;51920;53.952;10.292;2023-12-04T12:36:58;100797.44;;;-0.23
65316;BMP280;51920;53.952;10.292;2023-12-04T12:39:25;100792.22;;;-0.14
65316;BMP280;51920;53.952;10.292;2023-12-04T12:41:51;100783.53;;;-0.20
65316;BMP280;51920;53.952;10.292;2023-12-04T12:44:18;100790.22;;;-0.22
65316;BMP280;51920;53.952;10.292;2023-12-04T12:46:48;100787.28;;;-0.21
65316;BMP280;51920;53.952;10.292;2023-12-04T12:49:19;100774.56;;;-0.24
65316;BMP280;51920;53.952;10.292;2023-12-04T12:51:51;100781.19;;;-0.21
65316;BMP280;51920;53.952;10.292;2023-12-04T12:54:23;100774.56;;;-0.24
65316;BMP280;51920;53.952;10.292;2023-12-04T12:56:50;100770.03;;;-0.37
65316;BMP280;51920;53.952;10.292;2023-12-04T12:59:17;100768.63;;;-0.34
65316;BMP280;51920;53.952;10.292;2023-12-04T13:01:44;100770.22;;;-0.20
65316;BMP280;51920;53.952;10.292;2023-12-04T13:04:14;100758.59;;;-0.24
65316;BMP280;51920;53.952;10.292;2023-12-04T13:06:41;100756.09;;;-0.34
65316;BMP280;51920;53.952;10.292;2023-12-04T13:09:08;100755.03;;;-0.19
65316;BMP280;51920;53.952;10.292;2023-12-04T13:11:35;100746.56;;;-0.21
65316;BMP280;51920;53.952;10.292;2023-12-04T13:14:02;100750.50;;;-0.32
65316;BMP280;51920;53.952;10.292;2023-12-04T13:16:29;100739.47;;;-0.26
65316;BMP280;51920;53.952;10.292;2023-12-04T13:18:56;100736.72;;;-0.21
65316;BMP280;51920;53.952;10.292;2023-12-04T13:21:23;100737.00;;;-0.22
65316;BMP280;51920;53.952;10.292;2023-12-04T13:23:49;100738.78;;;-0.17
65316;BMP280;51920;53.952;10.292;2023-12-04T13:26:16;100744.78;;;-0.26
65316;BMP280;51920;53.952;10.292;2023-12-04T13:28:43;100736.72;;;-0.21
65316;BMP280;51920;53.952;10.292;2023-12-04T13:31:09;100729.41;;;-0.29
65316;BMP280;51920;53.952;10.292;2023-12-04T13:33:36;100726.56;;;-0.32
65316;BMP280;51920;53.952;10.292;2023-12-04T13:36:03;100717.78;;;-0.33
65316;BMP280;51920;53.952;10.292;2023-12-04T13:38:30;100727.53;;;-0.42
65316;BMP280;51920;53.952;10.292;2023-12-04T13:40:59;100723.28;;;-0.43
65316;BMP280;51920;53.952;10.292;2023-12-04T13:43:29;100716.50;;;-0.35
65316;BMP280;51920;53.952;10.292;2023-12-04T13:46:14;100714.25;;;-0.28